createdAt,value
2019-05-18T00:00:37.458Z,1012.31
2019-05-18T00:01:37.446Z,1012.35
2019-05-18T00:02:37.456Z,1012.34
2019-05-18T00:03:37.448Z,1012.31
2019-05-18T00:04:37.468Z,1012.34
2019-05-18T00:05:37.458Z,1012.29
2019-05-18T00:06:37.388Z,1012.27
2019-05-18T00:07:37.390Z,1012.26
2019-05-18T00:08:37.367Z,1012.28
2019-05-18T00:09:37.380Z,1012.31
2019-05-18T00:10:37.371Z,1012.31
2019-05-18T00:11:37.380Z,1012.31
2019-05-18T00:12:37.336Z,1012.29
2019-05-18T00:13:37.327Z,1012.32
2019-05-18T00:14:37.314Z,1012.33
2019-05-18T00:15:37.303Z,1012.34
2019-05-18T00:16:37.306Z,1012.28
2019-05-18T00:17:37.340Z,1012.31
2019-05-18T00:18:37.277Z,1012.32
2019-05-18T00:19:37.292Z,1012.23
2019-05-18T00:20:37.235Z,1012.27
2019-05-18T00:21:37.232Z,1012.27
2019-05-18T00:22:37.239Z,1012.30
2019-05-18T00:23:48.487Z,1012.31
2019-05-18T00:24:37.209Z,1012.28
2019-05-18T00:25:37.186Z,1012.24
2019-05-18T00:26:37.212Z,1012.23
2019-05-18T00:27:37.178Z,1012.25
2019-05-18T00:28:37.183Z,1012.28
2019-05-18T00:29:37.160Z,1012.20
2019-05-18T00:30:37.138Z,1012.23
2019-05-18T00:31:37.178Z,1012.25
2019-05-18T00:32:37.274Z,1012.25
2019-05-18T00:33:37.152Z,1012.22
2019-05-18T00:34:37.111Z,1012.26
2019-05-18T00:35:37.096Z,1012.26
2019-05-18T00:36:37.087Z,1012.25
2019-05-18T00:37:37.084Z,1012.25
2019-05-18T00:38:37.087Z,1012.28
2019-05-18T00:39:37.056Z,1012.28
2019-05-18T00:40:37.025Z,1012.25
2019-05-18T00:41:37.024Z,1012.24
2019-05-18T00:42:37.034Z,1012.22
2019-05-18T00:43:37.045Z,1012.22
2019-05-18T00:44:37.026Z,1012.22
2019-05-18T00:45:37.013Z,1012.20
2019-05-18T00:46:36.975Z,1012.29
2019-05-18T00:47:41.456Z,1012.21
2019-05-18T00:48:37.977Z,1012.23
2019-05-18T00:49:36.960Z,1012.23
2019-05-18T00:50:36.926Z,1012.16
2019-05-18T00:51:36.928Z,1012.23
2019-05-18T00:52:36.944Z,1012.22
2019-05-18T00:53:36.891Z,1012.21
2019-05-18T00:54:48.296Z,1012.22
2019-05-18T00:55:36.868Z,1012.27
2019-05-18T00:56:36.872Z,1012.17
2019-05-18T00:57:36.859Z,1012.25
2019-05-18T00:58:36.836Z,1012.29
2019-05-18T00:59:36.841Z,1012.29
2019-05-18T01:00:36.833Z,1012.29
2019-05-18T01:01:36.827Z,1012.30
2019-05-18T01:02:36.814Z,1012.37
2019-05-18T01:03:36.790Z,1012.31
2019-05-18T01:04:36.787Z,1012.29
2019-05-18T01:05:38.168Z,1012.33
2019-05-18T01:06:36.777Z,1012.39
2019-05-18T01:07:36.767Z,1012.32
2019-05-18T01:08:36.761Z,1012.35
2019-05-18T01:09:36.757Z,1012.33
2019-05-18T01:10:36.740Z,1012.36
2019-05-18T01:11:36.725Z,1012.38
2019-05-18T01:12:36.717Z,1012.38
2019-05-18T01:13:36.710Z,1012.35
2019-05-18T01:14:36.707Z,1012.41
2019-05-18T01:15:36.740Z,1012.33
2019-05-18T01:16:36.706Z,1012.30
2019-05-18T01:17:36.653Z,1012.35
2019-05-18T01:18:36.656Z,1012.42
2019-05-18T01:19:36.650Z,1012.40
2019-05-18T01:20:36.626Z,1012.46
2019-05-18T01:21:36.627Z,1012.45
2019-05-18T01:22:36.626Z,1012.43
2019-05-18T01:23:36.588Z,1012.48
2019-05-18T01:24:36.583Z,1012.42
2019-05-18T01:25:46.594Z,1012.43
2019-05-18T01:26:36.553Z,1012.47
2019-05-18T01:27:36.602Z,1012.47
2019-05-18T01:28:36.532Z,1012.45
2019-05-18T01:29:36.512Z,1012.48
2019-05-18T01:30:36.548Z,1012.48
2019-05-18T01:31:36.491Z,1012.48
2019-05-18T01:32:36.515Z,1012.51
2019-05-18T01:33:36.478Z,1012.49
2019-05-18T01:34:36.497Z,1012.48
2019-05-18T01:35:36.474Z,1012.55
2019-05-18T01:36:36.464Z,1012.46
2019-05-18T01:37:36.444Z,1012.50
2019-05-18T01:38:36.429Z,1012.47
2019-05-18T01:39:36.475Z,1012.53
2019-05-18T01:40:36.421Z,1012.51
2019-05-18T01:41:36.410Z,1012.51
2019-05-18T01:42:36.426Z,1012.47
2019-05-18T01:43:36.370Z,1012.48
2019-05-18T01:44:36.435Z,1012.47
2019-05-18T01:45:36.363Z,1012.45
2019-05-18T01:46:36.370Z,1012.47
2019-05-18T01:47:36.355Z,1012.45
2019-05-18T01:48:36.323Z,1012.49
2019-05-18T01:49:36.301Z,1012.39
2019-05-18T01:50:36.348Z,1012.45
2019-05-18T01:51:36.328Z,1012.42
2019-05-18T01:52:36.288Z,1012.44
2019-05-18T01:53:36.313Z,1012.49
2019-05-18T01:54:36.248Z,1012.46
2019-05-18T01:55:36.277Z,1012.46
2019-05-18T01:56:46.977Z,1012.45
2019-05-18T01:57:36.228Z,1012.44
2019-05-18T01:58:36.275Z,1012.45
2019-05-18T01:59:36.208Z,1012.42
2019-05-18T02:00:36.201Z,1012.38
2019-05-18T02:01:36.210Z,1012.39
2019-05-18T02:02:36.184Z,1012.42
2019-05-18T02:03:36.170Z,1012.43
2019-05-18T02:04:36.156Z,1012.43
2019-05-18T02:05:36.154Z,1012.43
2019-05-18T02:06:36.144Z,1012.37
2019-05-18T02:07:36.133Z,1012.44
2019-05-18T02:08:36.139Z,1012.44
2019-05-18T02:09:36.102Z,1012.46
2019-05-18T02:10:36.105Z,1012.41
2019-05-18T02:11:36.086Z,1012.45
2019-05-18T02:12:36.055Z,1012.40
2019-05-18T02:13:36.064Z,1012.50
2019-05-18T02:14:36.046Z,1012.47
2019-05-18T02:15:36.056Z,1012.44
2019-05-18T02:16:36.035Z,1012.43
2019-05-18T02:17:36.026Z,1012.47
2019-05-18T02:18:36.010Z,1012.46
2019-05-18T02:19:36.008Z,1012.43
2019-05-18T02:20:35.993Z,1012.45
2019-05-18T02:21:35.964Z,1012.53
2019-05-18T02:22:35.973Z,1012.51
2019-05-18T02:23:35.955Z,1012.52
2019-05-18T02:24:35.943Z,1012.50
2019-05-18T02:25:35.955Z,1012.51
2019-05-18T02:26:35.934Z,1012.55
2019-05-18T02:27:46.060Z,1012.53
2019-05-18T02:28:35.903Z,1012.48
2019-05-18T02:29:35.895Z,1012.50
2019-05-18T02:30:35.870Z,1012.51
2019-05-18T02:31:35.868Z,1012.55
2019-05-18T02:32:35.872Z,1012.53
2019-05-18T02:33:35.872Z,1012.54
2019-05-18T02:34:35.856Z,1012.53
2019-05-18T02:35:35.835Z,1012.54
2019-05-18T02:36:35.842Z,1012.53
2019-05-18T02:37:35.801Z,1012.54
2019-05-18T02:38:35.793Z,1012.49
2019-05-18T02:39:35.840Z,1012.50
2019-05-18T02:40:35.793Z,1012.50
2019-05-18T02:41:35.782Z,1012.46
2019-05-18T02:42:35.754Z,1012.50
2019-05-18T02:43:35.751Z,1012.47
2019-05-18T02:44:35.736Z,1012.48
2019-05-18T02:45:35.743Z,1012.48
2019-05-18T02:46:35.720Z,1012.45
2019-05-18T02:47:35.713Z,1012.49
2019-05-18T02:48:48.576Z,1012.46
2019-05-18T02:49:36.711Z,1012.50
2019-05-18T02:50:35.659Z,1012.47
2019-05-18T02:51:35.671Z,1012.49
2019-05-18T02:52:35.666Z,1012.43
2019-05-18T02:53:35.644Z,1012.47
2019-05-18T02:54:35.658Z,1012.45
2019-05-18T02:55:35.681Z,1012.47
2019-05-18T02:56:35.627Z,1012.45
2019-05-18T02:57:35.629Z,1012.50
2019-05-18T02:58:46.375Z,1012.43
2019-05-18T02:59:35.585Z,1012.44
2019-05-18T03:00:35.573Z,1012.42
2019-05-18T03:01:35.577Z,1012.40
2019-05-18T03:02:35.552Z,1012.50
2019-05-18T03:03:35.547Z,1012.48
2019-05-18T03:04:35.539Z,1012.42
2019-05-18T03:05:35.558Z,1012.46
2019-05-18T03:06:35.514Z,1012.46
2019-05-18T03:07:35.503Z,1012.43
2019-05-18T03:08:35.505Z,1012.45
2019-05-18T03:09:35.475Z,1012.50
2019-05-18T03:10:35.464Z,1012.45
2019-05-18T03:11:35.464Z,1012.45
2019-05-18T03:12:35.443Z,1012.47
2019-05-18T03:13:35.433Z,1012.47
2019-05-18T03:14:35.414Z,1012.43
2019-05-18T03:15:35.403Z,1012.48
2019-05-18T03:16:35.447Z,1012.45
2019-05-18T03:17:35.433Z,1012.40
2019-05-18T03:18:35.401Z,1012.41
2019-05-18T03:19:35.387Z,1012.38
2019-05-18T03:20:35.362Z,1012.36
2019-05-18T03:21:35.370Z,1012.39
2019-05-18T03:22:35.342Z,1012.36
2019-05-18T03:23:35.352Z,1012.38
2019-05-18T03:24:35.302Z,1012.41
2019-05-18T03:25:35.303Z,1012.44
2019-05-18T03:26:35.284Z,1012.41
2019-05-18T03:27:35.305Z,1012.44
2019-05-18T03:28:35.282Z,1012.40
2019-05-18T03:29:47.431Z,1012.41
2019-05-18T03:30:35.249Z,1012.40
2019-05-18T03:31:35.253Z,1012.37
2019-05-18T03:32:35.251Z,1012.38
2019-05-18T03:33:35.222Z,1012.37
2019-05-18T03:34:35.201Z,1012.41
2019-05-18T03:35:35.227Z,1012.43
2019-05-18T03:36:35.205Z,1012.44
2019-05-18T03:37:35.194Z,1012.40
2019-05-18T03:38:35.194Z,1012.40
2019-05-18T03:39:35.173Z,1012.46
2019-05-18T03:40:35.150Z,1012.42
2019-05-18T03:41:35.161Z,1012.54
2019-05-18T03:42:35.129Z,1012.52
2019-05-18T03:43:35.172Z,1012.49
2019-05-18T03:44:35.096Z,1012.51
2019-05-18T03:45:35.100Z,1012.48
2019-05-18T03:46:35.095Z,1012.43
2019-05-18T03:47:35.138Z,1012.50
2019-05-18T03:48:35.079Z,1012.46
2019-05-18T03:49:35.047Z,1012.52
2019-05-18T03:50:35.098Z,1012.51
2019-05-18T03:51:35.058Z,1012.55
2019-05-18T03:52:35.057Z,1012.49
2019-05-18T03:53:35.009Z,1012.54
2019-05-18T03:54:35.013Z,1012.47
2019-05-18T03:55:34.999Z,1012.42
2019-05-18T03:56:35.019Z,1012.41
2019-05-18T03:57:34.967Z,1012.45
2019-05-18T03:58:34.994Z,1012.40
2019-05-18T03:59:34.946Z,1012.41
2019-05-18T04:00:45.588Z,1012.37
2019-05-18T04:01:34.919Z,1012.39
2019-05-18T04:02:34.908Z,1012.40
2019-05-18T04:03:34.902Z,1012.36
2019-05-18T04:04:34.902Z,1012.35
2019-05-18T04:05:34.884Z,1012.35
2019-05-18T04:06:34.893Z,1012.41
2019-05-18T04:07:34.885Z,1012.31
2019-05-18T04:08:34.853Z,1012.34
2019-05-18T04:09:34.838Z,1012.31
2019-05-18T04:10:34.852Z,1012.32
2019-05-18T04:11:34.839Z,1012.36
2019-05-18T04:12:34.852Z,1012.28
2019-05-18T04:13:34.848Z,1012.34
2019-05-18T04:14:34.788Z,1012.29
2019-05-18T04:15:34.771Z,1012.28
2019-05-18T04:16:34.761Z,1012.31
2019-05-18T04:17:34.758Z,1012.26
2019-05-18T04:18:34.766Z,1012.29
2019-05-18T04:19:45.498Z,1012.24
2019-05-18T04:20:35.723Z,1012.24
2019-05-18T04:21:34.710Z,1012.22
2019-05-18T04:22:34.702Z,1012.25
2019-05-18T04:23:34.717Z,1012.21
2019-05-18T04:24:34.675Z,1012.20
2019-05-18T04:25:34.676Z,1012.22
2019-05-18T04:26:34.650Z,1012.26
2019-05-18T04:27:34.655Z,1012.22
2019-05-18T04:28:34.640Z,1012.15
2019-05-18T04:29:34.615Z,1012.11
2019-05-18T04:30:34.620Z,1012.16
2019-05-18T04:31:44.738Z,1012.17
2019-05-18T04:32:34.589Z,1012.14
2019-05-18T04:33:34.605Z,1012.22
2019-05-18T04:34:34.560Z,1012.17
2019-05-18T04:35:34.550Z,1012.20
2019-05-18T04:36:34.536Z,1012.13
2019-05-18T04:37:34.575Z,1012.22
2019-05-18T04:38:34.552Z,1012.11
2019-05-18T04:39:34.526Z,1012.18
2019-05-18T04:40:34.510Z,1012.15
2019-05-18T04:41:34.496Z,1012.10
2019-05-18T04:42:34.498Z,1012.18
2019-05-18T04:43:34.465Z,1012.12
2019-05-18T04:44:34.488Z,1012.22
2019-05-18T04:45:34.453Z,1012.17
2019-05-18T04:46:34.434Z,1012.12
2019-05-18T04:47:34.434Z,1012.11
2019-05-18T04:48:34.417Z,1012.11
2019-05-18T04:49:34.418Z,1012.13
2019-05-18T04:50:34.417Z,1012.13
2019-05-18T04:51:34.387Z,1012.07
2019-05-18T04:52:34.389Z,1012.10
2019-05-18T04:53:34.365Z,1012.18
2019-05-18T04:54:34.362Z,1012.12
2019-05-18T04:55:34.383Z,1012.15
2019-05-18T04:56:34.398Z,1012.14
2019-05-18T04:57:34.323Z,1012.18
2019-05-18T04:58:34.323Z,1012.11
2019-05-18T04:59:34.297Z,1012.15
2019-05-18T05:00:34.301Z,1012.16
2019-05-18T05:01:34.313Z,1012.17
2019-05-18T05:02:46.414Z,1012.12
2019-05-18T05:03:34.261Z,1012.13
2019-05-18T05:04:34.244Z,1012.10
2019-05-18T05:05:34.223Z,1012.15
2019-05-18T05:06:34.245Z,1012.08
2019-05-18T05:07:34.242Z,1012.08
2019-05-18T05:08:34.191Z,1012.08
2019-05-18T05:09:34.183Z,1012.07
2019-05-18T05:10:34.174Z,1011.99
2019-05-18T05:11:34.151Z,1012.07
2019-05-18T05:12:34.151Z,1011.99
2019-05-18T05:13:34.140Z,1012.01
2019-05-18T05:14:34.142Z,1012.02
2019-05-18T05:15:34.112Z,1012.00
2019-05-18T05:16:34.172Z,1011.94
2019-05-18T05:17:34.089Z,1012.03
2019-05-18T05:18:34.101Z,1011.97
2019-05-18T05:19:34.098Z,1012.01
2019-05-18T05:20:34.110Z,1011.99
2019-05-18T05:21:34.053Z,1012.01
2019-05-18T05:22:34.103Z,1011.96
2019-05-18T05:23:34.059Z,1011.99
2019-05-18T05:24:34.009Z,1012.00
2019-05-18T05:25:34.009Z,1012.00
2019-05-18T05:26:34.050Z,1012.01
2019-05-18T05:27:33.988Z,1011.99
2019-05-18T05:28:34.014Z,1012.06
2019-05-18T05:29:34.024Z,1012.03
2019-05-18T05:30:33.972Z,1012.01
2019-05-18T05:31:33.938Z,1012.01
2019-05-18T05:32:33.936Z,1012.03
2019-05-18T05:33:44.648Z,1012.03
2019-05-18T05:34:33.918Z,1011.96
2019-05-18T05:35:33.911Z,1011.99
2019-05-18T05:36:33.878Z,1012.02
2019-05-18T05:37:33.880Z,1012.09
2019-05-18T05:38:33.878Z,1012.02
2019-05-18T05:39:33.877Z,1012.03
2019-05-18T05:40:33.881Z,1011.99
2019-05-18T05:41:33.849Z,1011.96
2019-05-18T05:42:33.835Z,1011.99
2019-05-18T05:43:33.822Z,1011.96
2019-05-18T05:44:33.844Z,1012.01
2019-05-18T05:45:33.809Z,1011.97
2019-05-18T05:46:33.795Z,1011.99
2019-05-18T05:47:33.777Z,1011.96
2019-05-18T05:48:33.768Z,1012.04
2019-05-18T05:49:33.788Z,1012.00
2019-05-18T05:50:36.369Z,1012.02
2019-05-18T05:51:33.747Z,1012.05
2019-05-18T05:52:33.739Z,1012.04
2019-05-18T05:53:33.709Z,1012.07
2019-05-18T05:54:33.735Z,1012.03
2019-05-18T05:55:33.696Z,1012.06
2019-05-18T05:56:33.709Z,1011.98
2019-05-18T05:57:33.678Z,1012.02
2019-05-18T05:58:33.655Z,1012.11
2019-05-18T05:59:33.668Z,1012.07
2019-05-18T06:00:33.667Z,1012.09
2019-05-18T06:01:33.632Z,1012.02
2019-05-18T06:02:33.609Z,1012.01
2019-05-18T06:03:33.615Z,1012.03
2019-05-18T06:04:43.727Z,1012.05
2019-05-18T06:05:33.577Z,1012.03
2019-05-18T06:06:33.578Z,1012.07
2019-05-18T06:07:33.570Z,1012.04
2019-05-18T06:08:33.569Z,1012.09
2019-05-18T06:09:33.538Z,1012.05
2019-05-18T06:10:33.568Z,1012.08
2019-05-18T06:11:33.529Z,1012.00
2019-05-18T06:12:33.516Z,1012.03
2019-05-18T06:13:33.512Z,1012.06
2019-05-18T06:14:33.489Z,1012.02
2019-05-18T06:15:33.477Z,1012.02
2019-05-18T06:16:33.515Z,1012.01
2019-05-18T06:17:33.487Z,1012.00
2019-05-18T06:18:33.470Z,1012.04
2019-05-18T06:19:33.436Z,1012.00
2019-05-18T06:20:33.428Z,1011.99
2019-05-18T06:21:33.439Z,1012.00
2019-05-18T06:22:33.420Z,1011.99
2019-05-18T06:23:33.395Z,1011.99
2019-05-18T06:24:33.403Z,1011.95
2019-05-18T06:25:34.492Z,1012.04
2019-05-18T06:26:33.400Z,1011.99
2019-05-18T06:27:33.364Z,1012.03
2019-05-18T06:28:33.346Z,1012.00
2019-05-18T06:29:33.345Z,1012.03
2019-05-18T06:30:33.322Z,1011.99
2019-05-18T06:31:33.320Z,1012.01
2019-05-18T06:32:33.306Z,1011.92
2019-05-18T06:33:33.296Z,1011.95
2019-05-18T06:34:33.289Z,1011.91
2019-05-18T06:35:43.465Z,1011.91
2019-05-18T06:36:33.261Z,1011.94
2019-05-18T06:37:33.251Z,1011.93
2019-05-18T06:38:33.266Z,1011.95
2019-05-18T06:39:33.216Z,1011.96
2019-05-18T06:40:33.234Z,1011.89
2019-05-18T06:41:33.208Z,1011.90
2019-05-18T06:42:33.211Z,1011.86
2019-05-18T06:43:33.192Z,1011.94
2019-05-18T06:44:33.178Z,1011.89
2019-05-18T06:45:33.186Z,1011.91
2019-05-18T06:46:33.150Z,1011.91
2019-05-18T06:47:33.169Z,1011.97
2019-05-18T06:48:33.126Z,1011.83
2019-05-18T06:49:33.166Z,1011.84
2019-05-18T06:50:33.106Z,1011.88
2019-05-18T06:51:33.100Z,1011.77
2019-05-18T06:52:33.098Z,1011.79
2019-05-18T06:53:33.078Z,1011.84
2019-05-18T06:54:33.056Z,1011.88
2019-05-18T06:55:33.069Z,1011.85
2019-05-18T06:56:33.036Z,1011.90
2019-05-18T06:57:33.027Z,1011.81
2019-05-18T06:58:33.027Z,1011.82
2019-05-18T06:59:33.009Z,1011.83
2019-05-18T07:00:33.038Z,1011.81
2019-05-18T07:01:33.005Z,1011.84
2019-05-18T07:02:32.987Z,1011.80
2019-05-18T07:03:32.987Z,1011.78
2019-05-18T07:04:32.974Z,1011.99
2019-05-18T07:05:32.950Z,1011.88
2019-05-18T07:06:45.626Z,1011.84
2019-05-18T07:07:32.938Z,1011.88
2019-05-18T07:08:32.905Z,1011.86
2019-05-18T07:09:32.896Z,1011.86
2019-05-18T07:10:32.885Z,1011.82
2019-05-18T07:11:32.875Z,1011.81
2019-05-18T07:12:32.896Z,1011.77
2019-05-18T07:13:32.893Z,1011.78
2019-05-18T07:14:32.865Z,1011.82
2019-05-18T07:15:32.837Z,1011.84
2019-05-18T07:16:32.835Z,1011.82
2019-05-18T07:17:34.644Z,1011.80
2019-05-18T07:18:32.815Z,1011.79
2019-05-18T07:19:32.804Z,1011.76
2019-05-18T07:20:32.775Z,1011.75
2019-05-18T07:21:32.785Z,1011.81
2019-05-18T07:22:32.770Z,1011.78
2019-05-18T07:23:32.806Z,1011.83
2019-05-18T07:24:32.786Z,1011.69
2019-05-18T07:25:32.729Z,1011.77
2019-05-18T07:26:32.728Z,1011.78
2019-05-18T07:27:32.709Z,1011.74
2019-05-18T07:28:32.721Z,1011.77
2019-05-18T07:29:32.729Z,1011.70
2019-05-18T07:30:32.687Z,1011.75
2019-05-18T07:31:32.677Z,1011.72
2019-05-18T07:32:32.655Z,1011.80
2019-05-18T07:33:32.674Z,1011.78
2019-05-18T07:34:32.677Z,1011.84
2019-05-18T07:35:32.644Z,1011.84
2019-05-18T07:36:32.614Z,1011.84
2019-05-18T07:37:42.792Z,1011.79
2019-05-18T07:38:32.595Z,1011.79
2019-05-18T07:39:36.005Z,1011.77
2019-05-18T07:40:32.584Z,1011.75
2019-05-18T07:41:45.819Z,1011.74
2019-05-18T07:42:33.566Z,1011.73
2019-05-18T07:43:32.556Z,1011.69
2019-05-18T07:44:32.537Z,1011.61
2019-05-18T07:45:32.515Z,1011.67
2019-05-18T07:46:32.556Z,1011.66
2019-05-18T07:47:32.509Z,1011.73
2019-05-18T07:48:32.508Z,1011.69
2019-05-18T07:49:32.516Z,1011.76
2019-05-18T07:50:32.467Z,1011.76
2019-05-18T07:51:36.939Z,1011.66
2019-05-18T07:52:33.425Z,1011.64
2019-05-18T07:53:32.459Z,1011.71
2019-05-18T07:54:32.456Z,1011.73
2019-05-18T07:55:32.426Z,1011.68
2019-05-18T07:56:32.417Z,1011.72
2019-05-18T07:57:32.409Z,1011.68
2019-05-18T07:58:32.393Z,1011.73
2019-05-18T07:59:32.387Z,1011.72
2019-05-18T08:00:32.365Z,1011.75
2019-05-18T08:01:32.376Z,1011.66
2019-05-18T08:02:32.336Z,1011.75
2019-05-18T08:03:32.339Z,1011.76
2019-05-18T08:04:32.331Z,1011.81
2019-05-18T08:05:32.315Z,1011.64
2019-05-18T08:06:32.286Z,1011.73
2019-05-18T08:07:32.288Z,1011.76
2019-05-18T08:08:42.547Z,1011.70
2019-05-18T08:09:32.264Z,1011.74
2019-05-18T08:10:32.294Z,1011.69
2019-05-18T08:11:32.238Z,1011.68
2019-05-18T08:12:32.222Z,1011.67
2019-05-18T08:13:32.215Z,1011.73
2019-05-18T08:14:32.225Z,1011.71
2019-05-18T08:15:32.215Z,1011.70
2019-05-18T08:16:32.206Z,1011.66
2019-05-18T08:17:32.200Z,1011.66
2019-05-18T08:18:32.175Z,1011.72
2019-05-18T08:19:32.180Z,1011.61
2019-05-18T08:20:32.174Z,1011.69
2019-05-18T08:21:32.135Z,1011.63
2019-05-18T08:22:32.148Z,1011.65
2019-05-18T08:23:32.118Z,1011.68
2019-05-18T08:24:32.115Z,1011.65
2019-05-18T08:25:32.103Z,1011.66
2019-05-18T08:26:32.198Z,1011.67
2019-05-18T08:27:32.092Z,1011.61
2019-05-18T08:28:32.069Z,1011.65
2019-05-18T08:29:32.067Z,1011.66
2019-05-18T08:30:32.043Z,1011.65
2019-05-18T08:31:32.033Z,1011.70
2019-05-18T08:32:32.030Z,1011.60
2019-05-18T08:33:32.004Z,1011.62
2019-05-18T08:34:32.006Z,1011.62
2019-05-18T08:35:31.984Z,1011.61
2019-05-18T08:36:31.976Z,1011.64
2019-05-18T08:37:32.037Z,1011.63
2019-05-18T08:38:31.975Z,1011.58
2019-05-18T08:39:42.019Z,1011.61
2019-05-18T08:40:31.931Z,1011.64
2019-05-18T08:41:31.938Z,1011.55
2019-05-18T08:42:31.928Z,1011.62
2019-05-18T08:43:31.914Z,1011.58
2019-05-18T08:44:31.938Z,1011.58
2019-05-18T08:45:31.887Z,1011.57
2019-05-18T08:46:31.866Z,1011.54
2019-05-18T08:47:31.868Z,1011.57
2019-05-18T08:48:31.873Z,1011.61
2019-05-18T08:49:31.839Z,1011.61
2019-05-18T08:50:31.869Z,1011.62
2019-05-18T08:51:31.827Z,1011.60
2019-05-18T08:52:31.806Z,1011.57
2019-05-18T08:53:31.802Z,1011.59
2019-05-18T08:54:31.857Z,1011.63
2019-05-18T08:55:31.777Z,1011.68
2019-05-18T08:56:31.767Z,1011.61
2019-05-18T08:57:31.749Z,1011.64
2019-05-18T08:58:31.769Z,1011.61
2019-05-18T08:59:31.747Z,1011.59
2019-05-18T09:00:31.787Z,1011.68
2019-05-18T09:01:31.725Z,1011.61
2019-05-18T09:02:31.705Z,1011.58
2019-05-18T09:03:31.685Z,1011.58
2019-05-18T09:04:31.685Z,1011.56
2019-05-18T09:05:31.767Z,1011.61
2019-05-18T09:06:31.677Z,1011.56
2019-05-18T09:07:31.647Z,1011.59
2019-05-18T09:08:31.636Z,1011.51
2019-05-18T09:09:31.676Z,1011.56
2019-05-18T09:10:41.879Z,1011.58
2019-05-18T09:11:31.614Z,1011.54
2019-05-18T09:12:31.613Z,1011.59
2019-05-18T09:13:31.601Z,1011.57
2019-05-18T09:14:31.572Z,1011.60
2019-05-18T09:15:31.571Z,1011.55
2019-05-18T09:16:31.571Z,1011.55
2019-05-18T09:17:31.550Z,1011.55
2019-05-18T09:18:31.551Z,1011.53
2019-05-18T09:19:31.541Z,1011.58
2019-05-18T09:20:31.567Z,1011.56
2019-05-18T09:21:31.513Z,1011.55
2019-05-18T09:22:31.542Z,1011.64
2019-05-18T09:23:31.551Z,1011.57
2019-05-18T09:24:31.484Z,1011.55
2019-05-18T09:25:31.462Z,1011.49
2019-05-18T09:26:31.466Z,1011.50
2019-05-18T09:27:31.440Z,1011.49
2019-05-18T09:28:31.444Z,1011.49
2019-05-18T09:29:31.423Z,1011.46
2019-05-18T09:30:31.414Z,1011.55
2019-05-18T09:31:31.411Z,1011.46
2019-05-18T09:32:31.422Z,1011.44
2019-05-18T09:33:31.409Z,1011.57
2019-05-18T09:34:31.392Z,1011.61
2019-05-18T09:35:31.359Z,1011.53
2019-05-18T09:36:31.341Z,1011.54
2019-05-18T09:37:31.331Z,1011.53
2019-05-18T09:38:33.309Z,1011.58
2019-05-18T09:39:31.337Z,1011.52
2019-05-18T09:40:31.320Z,1011.54
2019-05-18T09:41:41.259Z,1011.50
2019-05-18T09:42:31.290Z,1011.52
2019-05-18T09:43:31.266Z,1011.42
2019-05-18T09:44:31.280Z,1011.47
2019-05-18T09:45:31.244Z,1011.44
2019-05-18T09:46:31.248Z,1011.45
2019-05-18T09:47:31.232Z,1011.42
2019-05-18T09:48:31.227Z,1011.43
2019-05-18T09:49:31.233Z,1011.45
2019-05-18T09:50:31.217Z,1011.52
2019-05-18T09:51:31.204Z,1011.47
2019-05-18T09:52:44.070Z,1011.52
2019-05-18T09:54:31.225Z,1011.55
2019-05-18T09:55:31.149Z,1011.52
2019-05-18T09:56:31.157Z,1011.47
2019-05-18T09:57:31.131Z,1011.52
2019-05-18T09:58:31.119Z,1011.51
2019-05-18T09:59:31.107Z,1011.55
2019-05-18T10:00:38.264Z,1011.56
2019-05-18T10:02:31.067Z,1011.44
2019-05-18T10:03:31.066Z,1011.45
2019-05-18T10:04:31.083Z,1011.47
2019-05-18T10:05:31.078Z,1011.39
2019-05-18T10:06:31.545Z,1011.46
2019-05-18T10:07:31.017Z,1011.35
2019-05-18T10:08:31.015Z,1011.36
2019-05-18T10:09:38.887Z,1011.42
2019-05-18T10:11:38.239Z,1011.33
2019-05-18T10:13:43.716Z,1011.34
2019-05-18T10:14:43.697Z,1011.33
2019-05-18T10:15:43.689Z,1011.29
2019-05-18T10:16:43.718Z,1011.26
2019-05-18T10:18:43.656Z,1011.25
2019-05-18T10:19:43.635Z,1011.23
2019-05-18T10:20:43.636Z,1011.24
2019-05-18T10:21:43.630Z,1011.22
2019-05-18T10:22:55.077Z,1011.21
2019-05-18T10:23:44.617Z,1011.27
2019-05-18T10:24:43.586Z,1011.19
2019-05-18T10:25:43.566Z,1011.21
2019-05-18T10:26:43.577Z,1011.18
2019-05-18T10:27:43.640Z,1011.15
2019-05-18T10:28:43.567Z,1011.24
2019-05-18T10:29:46.515Z,1011.16
2019-05-18T10:30:43.589Z,1011.08
2019-05-18T10:31:43.535Z,1011.20
2019-05-18T10:32:43.511Z,1011.15
2019-05-18T10:33:43.538Z,1011.18
2019-05-18T10:34:43.512Z,1011.15
2019-05-18T10:35:43.987Z,1011.12
2019-05-18T10:36:43.468Z,1011.11
2019-05-18T10:37:43.451Z,1011.14
2019-05-18T10:38:43.437Z,1011.17
2019-05-18T10:39:43.449Z,1011.15
2019-05-18T10:40:43.419Z,1011.19
2019-05-18T10:41:43.405Z,1011.11
2019-05-18T10:42:43.426Z,1011.08
2019-05-18T10:43:50.574Z,1011.13
2019-05-18T10:44:43.375Z,1011.09
2019-05-18T10:45:45.102Z,1011.05
2019-05-18T10:46:43.354Z,1011.10
2019-05-18T10:47:43.365Z,1011.10
2019-05-18T10:48:43.345Z,1011.10
2019-05-18T10:49:43.366Z,1011.07
2019-05-18T10:50:43.310Z,1011.01
2019-05-18T10:52:43.291Z,1011.07
2019-05-18T10:53:43.336Z,1011.06
2019-05-18T10:54:43.283Z,1011.03
2019-05-18T10:55:43.265Z,1011.07
2019-05-18T10:56:43.251Z,1011.09
2019-05-18T10:57:43.248Z,1011.00
2019-05-18T10:58:43.223Z,1011.07
2019-05-18T10:59:43.222Z,1011.09
2019-05-18T11:00:43.225Z,1011.00
2019-05-18T11:01:44.028Z,1011.05
2019-05-18T11:02:43.205Z,1011.03
2019-05-18T11:04:43.164Z,1010.95
2019-05-18T11:05:43.150Z,1010.91
2019-05-18T11:06:43.154Z,1010.93
2019-05-18T11:08:43.108Z,1010.92
2019-05-18T11:09:43.103Z,1010.91
2019-05-18T11:10:43.105Z,1010.95
2019-05-18T11:11:43.132Z,1010.95
2019-05-18T11:12:43.083Z,1010.94
2019-05-18T11:13:43.069Z,1010.93
2019-05-18T11:14:55.426Z,1010.93
2019-05-18T11:15:43.065Z,1010.93
2019-05-18T11:16:43.033Z,1010.92
2019-05-18T11:17:43.042Z,1010.95
2019-05-18T11:18:43.074Z,1010.98
2019-05-18T11:19:42.995Z,1010.89
2019-05-18T11:20:42.991Z,1010.92
2019-05-18T11:21:42.993Z,1010.90
2019-05-18T11:22:42.991Z,1010.86
2019-05-18T11:23:46.021Z,1010.95
2019-05-18T11:24:42.943Z,1010.89
2019-05-18T11:25:42.962Z,1010.91
2019-05-18T11:26:42.933Z,1010.92
2019-05-18T11:27:42.933Z,1010.91
2019-05-18T11:28:42.943Z,1010.86
2019-05-18T11:29:42.932Z,1010.89
2019-05-18T11:30:42.884Z,1010.91
2019-05-18T11:31:42.875Z,1010.87
2019-05-18T11:32:42.873Z,1010.86
2019-05-18T11:33:42.881Z,1010.83
2019-05-18T11:35:42.860Z,1010.73
2019-05-18T11:36:42.813Z,1010.74
2019-05-18T11:37:42.843Z,1010.72
2019-05-18T11:39:42.836Z,1010.78
2019-05-18T11:40:42.791Z,1010.75
2019-05-18T11:41:43.583Z,1010.67
2019-05-18T11:42:42.755Z,1010.68
2019-05-18T11:43:42.766Z,1010.68
2019-05-18T11:44:42.742Z,1010.68
2019-05-18T11:46:42.717Z,1010.66
2019-05-18T11:47:42.716Z,1010.60
2019-05-18T11:48:42.750Z,1010.67
2019-05-18T11:49:42.688Z,1010.62
2019-05-18T11:50:42.674Z,1010.60
2019-05-18T11:51:42.661Z,1010.55
2019-05-18T11:52:42.659Z,1010.59
2019-05-18T11:53:42.645Z,1010.63
2019-05-18T11:54:42.666Z,1010.56
2019-05-18T11:55:42.628Z,1010.57
2019-05-18T11:56:42.616Z,1010.58
2019-05-18T11:57:42.620Z,1010.58
2019-05-18T11:58:42.620Z,1010.48
2019-05-18T11:59:42.595Z,1010.52
2019-05-18T12:00:42.605Z,1010.56
2019-05-18T12:01:42.569Z,1010.51
2019-05-18T12:02:42.559Z,1010.43
2019-05-18T12:03:42.562Z,1010.43
2019-05-18T12:04:43.016Z,1010.41
2019-05-18T12:05:42.523Z,1010.43
2019-05-18T12:06:42.510Z,1010.43
2019-05-18T12:07:42.504Z,1010.37
2019-05-18T12:08:42.518Z,1010.48
2019-05-18T12:09:42.483Z,1010.48
2019-05-18T12:10:42.466Z,1010.42
2019-05-18T12:11:42.458Z,1010.39
2019-05-18T12:12:42.440Z,1010.40
2019-05-18T12:13:42.437Z,1010.39
2019-05-18T12:14:42.427Z,1010.33
2019-05-18T12:15:42.427Z,1010.42
2019-05-18T12:16:53.524Z,1010.41